sensor_id;sensor_type;location;lat;lon;timestamp;P1;durP1;ratioP1;P2;durP2;ratioP2
39958;SDS011;25639;53.634;9.880;2023-10-09T00:02:09;8.13;;;2.92;;
39958;SDS011;25639;53.634;9.880;2023-10-09T00:04:36;6.60;;;2.70;;
39958;SDS011;25639;53.634;9.880;2023-10-09T00:07:21;8.32;;;2.97;;
39958;SDS011;25639;53.634;9.880;2023-10-09T00:09:56;8.02;;;3.10;;
39958;SDS011;25639;53.634;9.880;2023-10-09T00:12:21;9.00;;;3.00;;
39958;SDS011;25639;53.634;9.880;2023-10-09T00:14:53;6.55;;;2.92;;
39958;SDS011;25639;53.634;9.880;2023-10-09T00:17:20;9.45;;;3.00;;
39958;SDS011;25639;53.634;9.880;2023-10-09T00:19:48;11.10;;;3.30;;
39958;SDS011;25639;53.634;9.880;2023-10-09T00:22:19;7.78;;;2.70;;
39958;SDS011;25639;53.634;9.880;2023-10-09T00:24:54;5.75;;;2.63;;
39958;SDS011;25639;53.634;9.880;2023-10-09T00:27:40;5.18;;;3.00;;
39958;SDS011;25639;53.634;9.880;2023-10-09T00:30:08;7.30;;;2.80;;
39958;SDS011;25639;53.634;9.880;2023-10-09T00:32:43;6.07;;;2.50;;
39958;SDS011;25639;53.634;9.880;2023-10-09T00:35:27;9.50;;;3.53;;
39958;SDS011;25639;53.634;9.880;2023-10-09T00:38:11;6.28;;;2.47;;
39958;SDS011;25639;53.634;9.880;2023-10-09T00:43:50;9.73;;;3.57;;
39958;SDS011;25639;53.634;9.880;2023-10-09T00:46:17;6.35;;;2.80;;
39958;SDS011;25639;53.634;9.880;2023-10-09T00:48:45;6.07;;;2.92;;
39958;SDS011;25639;53.634;9.880;2023-10-09T00:51:13;7.13;;;2.53;;
39958;SDS011;25639;53.634;9.880;2023-10-09T00:53:43;7.82;;;3.00;;
39958;SDS011;25639;53.634;9.880;2023-10-09T00:56:10;8.75;;;3.28;;
39958;SDS011;25639;53.634;9.880;2023-10-09T00:58:47;8.18;;;2.78;;
39958;SDS011;25639;53.634;9.880;2023-10-09T01:01:20;8.93;;;2.97;;
39958;SDS011;25639;53.634;9.880;2023-10-09T01:03:51;5.95;;;2.83;;
39958;SDS011;25639;53.634;9.880;2023-10-09T01:06:16;11.55;;;3.45;;
39958;SDS011;25639;53.634;9.880;2023-10-09T01:08:46;10.95;;;2.60;;
39958;SDS011;25639;53.634;9.880;2023-10-09T01:11:21;9.70;;;2.60;;
39958;SDS011;25639;53.634;9.880;2023-10-09T01:13:48;9.13;;;2.70;;
39958;SDS011;25639;53.634;9.880;2023-10-09T01:16:15;7.35;;;2.42;;
39958;SDS011;25639;53.634;9.880;2023-10-09T01:19:03;8.60;;;3.00;;
39958;SDS011;25639;53.634;9.880;2023-10-09T01:21:37;5.80;;;2.40;;
39958;SDS011;25639;53.634;9.880;2023-10-09T01:24:04;6.55;;;2.30;;
39958;SDS011;25639;53.634;9.880;2023-10-09T01:26:37;9.02;;;3.47;;
39958;SDS011;25639;53.634;9.880;2023-10-09T01:29:32;6.57;;;2.33;;
39958;SDS011;25639;53.634;9.880;2023-10-09T01:31:57;7.28;;;2.47;;
39958;SDS011;25639;53.634;9.880;2023-10-09T01:34:32;6.75;;;2.80;;
39958;SDS011;25639;53.634;9.880;2023-10-09T01:37:08;7.80;;;2.88;;
39958;SDS011;25639;53.634;9.880;2023-10-09T01:39:43;10.73;;;2.70;;
39958;SDS011;25639;53.634;9.880;2023-10-09T01:42:10;12.45;;;3.58;;
39958;SDS011;25639;53.634;9.880;2023-10-09T01:44:37;5.85;;;2.88;;
39958;SDS011;25639;53.634;9.880;2023-10-09T01:47:08;10.10;;;3.05;;
39958;SDS011;25639;53.634;9.880;2023-10-09T01:49:41;9.25;;;2.85;;
39958;SDS011;25639;53.634;9.880;2023-10-09T01:52:09;9.10;;;2.67;;
39958;SDS011;25639;53.634;9.880;2023-10-09T01:54:58;7.10;;;3.15;;
39958;SDS011;25639;53.634;9.880;2023-10-09T01:57:27;4.95;;;2.22;;
39958;SDS011;25639;53.634;9.880;2023-10-09T01:59:55;7.45;;;2.72;;
39958;SDS011;25639;53.634;9.880;2023-10-09T02:02:22;6.65;;;2.88;;
39958;SDS011;25639;53.634;9.880;2023-10-09T02:04:52;5.03;;;2.40;;
39958;SDS011;25639;53.634;9.880;2023-10-09T02:07:34;10.30;;;2.80;;
39958;SDS011;25639;53.634;9.880;2023-10-09T02:10:14;13.48;;;2.75;;
39958;SDS011;25639;53.634;9.880;2023-10-09T02:13:02;6.07;;;2.20;;
39958;SDS011;25639;53.634;9.880;2023-10-09T02:15:31;6.00;;;2.40;;
39958;SDS011;25639;53.634;9.880;2023-10-09T02:20:48;7.55;;;2.60;;
39958;SDS011;25639;53.634;9.880;2023-10-09T02:23:27;3.95;;;2.30;;
39958;SDS011;25639;53.634;9.880;2023-10-09T02:26:06;4.38;;;2.30;;
39958;SDS011;25639;53.634;9.880;2023-10-09T02:28:35;7.50;;;2.20;;
39958;SDS011;25639;53.634;9.880;2023-10-09T02:31:01;5.57;;;2.40;;
39958;SDS011;25639;53.634;9.880;2023-10-09T02:33:35;7.80;;;2.42;;
39958;SDS011;25639;53.634;9.880;2023-10-09T02:36:04;6.22;;;2.20;;
39958;SDS011;25639;53.634;9.880;2023-10-09T02:38:44;9.65;;;2.25;;
39958;SDS011;25639;53.634;9.880;2023-10-09T02:41:25;6.97;;;2.17;;
39958;SDS011;25639;53.634;9.880;2023-10-09T02:43:54;9.40;;;1.90;;
39958;SDS011;25639;53.634;9.880;2023-10-09T02:46:48;7.80;;;2.10;;
39958;SDS011;25639;53.634;9.880;2023-10-09T02:52:24;7.07;;;2.10;;
39958;SDS011;25639;53.634;9.880;2023-10-09T03:11:30;9.30;;;2.42;;
39958;SDS011;25639;53.634;9.880;2023-10-09T03:23:59;6.53;;;2.25;;
39958;SDS011;25639;53.634;9.880;2023-10-09T03:26:29;11.52;;;2.35;;
39958;SDS011;25639;53.634;9.880;2023-10-09T03:38:23;10.57;;;2.80;;
39958;SDS011;25639;53.634;9.880;2023-10-09T03:40:51;8.02;;;2.60;;
39958;SDS011;25639;53.634;9.880;2023-10-09T03:52:24;5.18;;;2.25;;
39958;SDS011;25639;53.634;9.880;2023-10-09T03:55:58;8.13;;;2.80;;
39958;SDS011;25639;53.634;9.880;2023-10-09T03:59:08;7.70;;;2.65;;
39958;SDS011;25639;53.634;9.880;2023-10-09T04:01:41;6.80;;;2.75;;
39958;SDS011;25639;53.634;9.880;2023-10-09T04:10:17;5.45;;;2.45;;
39958;SDS011;25639;53.634;9.880;2023-10-09T04:13:20;5.45;;;2.15;;
39958;SDS011;25639;53.634;9.880;2023-10-09T04:16:30;6.28;;;2.78;;
39958;SDS011;25639;53.634;9.880;2023-10-09T04:20:02;4.45;;;2.25;;
39958;SDS011;25639;53.634;9.880;2023-10-09T04:22:41;5.35;;;2.25;;
39958;SDS011;25639;53.634;9.880;2023-10-09T04:25:16;8.02;;;2.28;;
39958;SDS011;25639;53.634;9.880;2023-10-09T04:27:50;6.03;;;2.70;;
39958;SDS011;25639;53.634;9.880;2023-10-09T04:30:33;5.72;;;2.03;;
39958;SDS011;25639;53.634;9.880;2023-10-09T04:33:05;7.05;;;2.70;;
39958;SDS011;25639;53.634;9.880;2023-10-09T04:35:53;7.03;;;2.40;;
39958;SDS011;25639;53.634;9.880;2023-10-09T04:38:57;6.00;;;2.60;;
39958;SDS011;25639;53.634;9.880;2023-10-09T04:41:28;5.68;;;2.10;;
39958;SDS011;25639;53.634;9.880;2023-10-09T04:43:58;5.78;;;2.10;;
39958;SDS011;25639;53.634;9.880;2023-10-09T04:46:44;7.03;;;2.42;;
39958;SDS011;25639;53.634;9.880;2023-10-09T04:49:23;5.60;;;2.17;;
39958;SDS011;25639;53.634;9.880;2023-10-09T04:51:53;6.68;;;2.08;;
39958;SDS011;25639;53.634;9.880;2023-10-09T04:54:43;7.72;;;2.10;;
39958;SDS011;25639;53.634;9.880;2023-10-09T04:57:27;5.43;;;2.67;;
39958;SDS011;25639;53.634;9.880;2023-10-09T05:00:00;4.70;;;2.20;;
39958;SDS011;25639;53.634;9.880;2023-10-09T05:02:58;9.73;;;2.25;;
39958;SDS011;25639;53.634;9.880;2023-10-09T05:05:38;8.25;;;2.38;;
39958;SDS011;25639;53.634;9.880;2023-10-09T05:08:07;6.57;;;2.50;;
39958;SDS011;25639;53.634;9.880;2023-10-09T05:10:56;7.90;;;2.28;;
39958;SDS011;25639;53.634;9.880;2023-10-09T05:13:23;5.22;;;2.30;;
39958;SDS011;25639;53.634;9.880;2023-10-09T05:16:21;6.30;;;2.38;;
39958;SDS011;25639;53.634;9.880;2023-10-09T05:18:58;5.50;;;2.15;;
39958;SDS011;25639;53.634;9.880;2023-10-09T05:21:38;8.45;;;2.42;;
39958;SDS011;25639;53.634;9.880;2023-10-09T05:24:07;7.78;;;2.40;;
39958;SDS011;25639;53.634;9.880;2023-10-09T05:26:36;6.20;;;2.92;;
39958;SDS011;25639;53.634;9.880;2023-10-09T05:29:11;6.55;;;2.45;;
39958;SDS011;25639;53.634;9.880;2023-10-09T05:31:58;7.68;;;2.83;;
39958;SDS011;25639;53.634;9.880;2023-10-09T05:34:31;10.25;;;3.30;;
39958;SDS011;25639;53.634;9.880;2023-10-09T05:37:20;7.07;;;3.17;;
39958;SDS011;25639;53.634;9.880;2023-10-09T05:39:57;9.25;;;3.00;;
39958;SDS011;25639;53.634;9.880;2023-10-09T05:42:30;7.85;;;2.95;;
39958;SDS011;25639;53.634;9.880;2023-10-09T05:45:06;8.95;;;3.33;;
39958;SDS011;25639;53.634;9.880;2023-10-09T05:47:54;6.13;;;3.08;;
39958;SDS011;25639;53.634;9.880;2023-10-09T05:50:25;5.95;;;2.70;;
39958;SDS011;25639;53.634;9.880;2023-10-09T05:52:52;7.18;;;3.22;;
39958;SDS011;25639;53.634;9.880;2023-10-09T05:55:20;7.13;;;3.25;;
39958;SDS011;25639;53.634;9.880;2023-10-09T05:57:51;8.52;;;3.35;;
39958;SDS011;25639;53.634;9.880;2023-10-09T06:00:20;6.53;;;3.30;;
39958;SDS011;25639;53.634;9.880;2023-10-09T06:03:08;7.85;;;3.78;;
39958;SDS011;25639;53.634;9.880;2023-10-09T06:05:45;10.68;;;4.05;;
39958;SDS011;25639;53.634;9.880;2023-10-09T06:08:24;8.52;;;3.78;;
39958;SDS011;25639;53.634;9.880;2023-10-09T06:11:06;12.25;;;3.90;;
39958;SDS011;25639;53.634;9.880;2023-10-09T06:13:54;11.63;;;4.38;;
39958;SDS011;25639;53.634;9.880;2023-10-09T06:16:35;9.93;;;3.47;;
39958;SDS011;25639;53.634;9.880;2023-10-09T06:19:35;10.75;;;3.78;;
39958;SDS011;25639;53.634;9.880;2023-10-09T06:22:25;9.38;;;3.70;;
39958;SDS011;25639;53.634;9.880;2023-10-09T06:25:15;6.53;;;3.22;;
39958;SDS011;25639;53.634;9.880;2023-10-09T06:28:28;8.25;;;3.15;;
39958;SDS011;25639;53.634;9.880;2023-10-09T06:30:59;8.52;;;3.83;;
39958;SDS011;25639;53.634;9.880;2023-10-09T06:33:45;7.72;;;3.97;;
39958;SDS011;25639;53.634;9.880;2023-10-09T06:36:30;16.02;;;5.45;;
39958;SDS011;25639;53.634;9.880;2023-10-09T06:39:06;11.13;;;5.45;;
39958;SDS011;25639;53.634;9.880;2023-10-09T06:41:53;11.23;;;4.50;;
39958;SDS011;25639;53.634;9.880;2023-10-09T06:44:33;8.50;;;4.32;;
39958;SDS011;25639;53.634;9.880;2023-10-09T06:47:18;7.00;;;3.92;;
39958;SDS011;25639;53.634;9.880;2023-10-09T06:49:51;10.68;;;3.78;;
39958;SDS011;25639;53.634;9.880;2023-10-09T06:52:36;8.98;;;3.83;;
39958;SDS011;25639;53.634;9.880;2023-10-09T06:57:57;10.73;;;3.90;;
39958;SDS011;25639;53.634;9.880;2023-10-09T07:00:26;10.15;;;4.43;;
39958;SDS011;25639;53.634;9.880;2023-10-09T07:03:14;9.20;;;4.45;;
39958;SDS011;25639;53.634;9.880;2023-10-09T07:05:44;12.50;;;4.70;;
39958;SDS011;25639;53.634;9.880;2023-10-09T07:08:32;10.63;;;4.68;;
39958;SDS011;25639;53.634;9.880;2023-10-09T07:11:05;9.63;;;4.90;;
39958;SDS011;25639;53.634;9.880;2023-10-09T07:14:09;13.77;;;6.00;;
39958;SDS011;25639;53.634;9.880;2023-10-09T07:20:39;7.55;;;4.82;;
39958;SDS011;25639;53.634;9.880;2023-10-09T07:23:10;11.95;;;5.80;;
39958;SDS011;25639;53.634;9.880;2023-10-09T07:25:42;9.68;;;5.80;;
39958;SDS011;25639;53.634;9.880;2023-10-09T07:28:23;9.63;;;6.03;;
39958;SDS011;25639;53.634;9.880;2023-10-09T07:31:06;8.88;;;5.72;;
39958;SDS011;25639;53.634;9.880;2023-10-09T07:33:38;10.30;;;5.97;;
39958;SDS011;25639;53.634;9.880;2023-10-09T07:38:49;11.70;;;6.28;;
39958;SDS011;25639;53.634;9.880;2023-10-09T07:41:20;10.85;;;5.97;;
39958;SDS011;25639;53.634;9.880;2023-10-09T07:43:45;10.27;;;6.10;;
39958;SDS011;25639;53.634;9.880;2023-10-09T07:46:12;13.52;;;7.25;;
39958;SDS011;25639;53.634;9.880;2023-10-09T07:48:57;9.52;;;5.53;;
39958;SDS011;25639;53.634;9.880;2023-10-09T07:51:37;9.18;;;5.35;;
39958;SDS011;25639;53.634;9.880;2023-10-09T07:56:41;9.30;;;5.50;;
39958;SDS011;25639;53.634;9.880;2023-10-09T07:59:18;10.48;;;5.55;;
39958;SDS011;25639;53.634;9.880;2023-10-09T08:01:44;10.52;;;6.57;;
39958;SDS011;25639;53.634;9.880;2023-10-09T08:04:27;10.45;;;7.00;;
39958;SDS011;25639;53.634;9.880;2023-10-09T08:07:11;11.75;;;8.07;;
39958;SDS011;25639;53.634;9.880;2023-10-09T08:09:55;11.40;;;6.93;;
39958;SDS011;25639;53.634;9.880;2023-10-09T08:12:42;9.48;;;6.55;;
39958;SDS011;25639;53.634;9.880;2023-10-09T08:15:18;8.70;;;6.18;;
39958;SDS011;25639;53.634;9.880;2023-10-09T08:18:02;10.23;;;5.90;;
39958;SDS011;25639;53.634;9.880;2023-10-09T08:20:56;10.85;;;5.28;;
39958;SDS011;25639;53.634;9.880;2023-10-09T08:23:22;9.40;;;4.90;;
39958;SDS011;25639;53.634;9.880;2023-10-09T08:26:03;9.43;;;5.70;;
39958;SDS011;25639;53.634;9.880;2023-10-09T08:32:21;8.95;;;5.25;;
39958;SDS011;25639;53.634;9.880;2023-10-09T08:37:53;8.77;;;6.00;;
39958;SDS011;25639;53.634;9.880;2023-10-09T08:52:08;8.35;;;6.15;;
39958;SDS011;25639;53.634;9.880;2023-10-09T08:59:46;10.80;;;6.10;;
39958;SDS011;25639;53.634;9.880;2023-10-09T09:02:11;9.60;;;6.47;;
39958;SDS011;25639;53.634;9.880;2023-10-09T09:14:02;11.98;;;6.60;;
39958;SDS011;25639;53.634;9.880;2023-10-09T09:16:42;11.32;;;6.60;;
39958;SDS011;25639;53.634;9.880;2023-10-09T09:19:16;10.18;;;7.03;;
39958;SDS011;25639;53.634;9.880;2023-10-09T09:22:07;10.02;;;8.15;;
39958;SDS011;25639;53.634;9.880;2023-10-09T09:28:07;11.55;;;8.07;;
39958;SDS011;25639;53.634;9.880;2023-10-09T09:30:50;12.48;;;6.78;;
39958;SDS011;25639;53.634;9.880;2023-10-09T09:33:27;9.60;;;6.60;;
39958;SDS011;25639;53.634;9.880;2023-10-09T09:36:35;9.75;;;7.05;;
39958;SDS011;25639;53.634;9.880;2023-10-09T09:42:21;9.15;;;5.53;;
39958;SDS011;25639;53.634;9.880;2023-10-09T09:50:21;6.63;;;4.88;;
39958;SDS011;25639;53.634;9.880;2023-10-09T10:02:29;10.25;;;5.72;;
39958;SDS011;25639;53.634;9.880;2023-10-09T10:14:21;13.75;;;8.57;;
39958;SDS011;25639;53.634;9.880;2023-10-09T10:25:33;16.67;;;9.32;;
39958;SDS011;25639;53.634;9.880;2023-10-09T10:29:20;12.75;;;9.80;;
39958;SDS011;25639;53.634;9.880;2023-10-09T10:32:06;18.08;;;11.02;;
39958;SDS011;25639;53.634;9.880;2023-10-09T10:40:41;13.60;;;9.38;;
39958;SDS011;25639;53.634;9.880;2023-10-09T10:43:29;11.95;;;8.75;;
39958;SDS011;25639;53.634;9.880;2023-10-09T10:47:05;12.93;;;9.00;;
39958;SDS011;25639;53.634;9.880;2023-10-09T10:50:27;15.35;;;9.13;;
39958;SDS011;25639;53.634;9.880;2023-10-09T10:53:11;17.45;;;9.98;;
39958;SDS011;25639;53.634;9.880;2023-10-09T10:56:00;11.32;;;9.35;;
39958;SDS011;25639;53.634;9.880;2023-10-09T10:58:39;14.55;;;10.27;;
39958;SDS011;25639;53.634;9.880;2023-10-09T11:01:35;13.73;;;9.75;;
39958;SDS011;25639;53.634;9.880;2023-10-09T11:04:29;12.63;;;9.48;;
39958;SDS011;25639;53.634;9.880;2023-10-09T11:07:33;15.27;;;10.38;;
39958;SDS011;25639;53.634;9.880;2023-10-09T11:09:58;11.85;;;8.32;;
39958;SDS011;25639;53.634;9.880;2023-10-09T11:15:34;11.38;;;7.72;;
39958;SDS011;25639;53.634;9.880;2023-10-09T11:18:09;5.55;;;4.90;;
39958;SDS011;25639;53.634;9.880;2023-10-09T11:20:48;5.10;;;4.30;;
39958;SDS011;25639;53.634;9.880;2023-10-09T11:23:49;5.85;;;4.70;;
39958;SDS011;25639;53.634;9.880;2023-10-09T11:30:02;5.75;;;4.68;;
39958;SDS011;25639;53.634;9.880;2023-10-09T11:32:47;5.05;;;4.55;;
39958;SDS011;25639;53.634;9.880;2023-10-09T11:35:14;7.40;;;5.32;;
39958;SDS011;25639;53.634;9.880;2023-10-09T11:37:54;5.72;;;4.47;;
39958;SDS011;25639;53.634;9.880;2023-10-09T11:40:27;8.82;;;5.80;;
39958;SDS011;25639;53.634;9.880;2023-10-09T11:43:30;7.40;;;5.05;;
39958;SDS011;25639;53.634;9.880;2023-10-09T11:46:22;6.47;;;4.95;;
39958;SDS011;25639;53.634;9.880;2023-10-09T11:49:13;8.05;;;5.47;;
39958;SDS011;25639;53.634;9.880;2023-10-09T11:51:44;6.43;;;5.70;;
39958;SDS011;25639;53.634;9.880;2023-10-09T11:54:33;7.10;;;5.40;;
39958;SDS011;25639;53.634;9.880;2023-10-09T11:57:00;6.72;;;5.00;;
39958;SDS011;25639;53.634;9.880;2023-10-09T11:59:31;6.15;;;5.40;;
39958;SDS011;25639;53.634;9.880;2023-10-09T12:02:03;7.45;;;5.25;;
39958;SDS011;25639;53.634;9.880;2023-10-09T12:04:37;6.97;;;5.18;;
39958;SDS011;25639;53.634;9.880;2023-10-09T12:07:06;6.40;;;5.40;;
39958;SDS011;25639;53.634;9.880;2023-10-09T12:09:34;11.25;;;6.25;;
39958;SDS011;25639;53.634;9.880;2023-10-09T12:12:00;12.30;;;6.63;;
39958;SDS011;25639;53.634;9.880;2023-10-09T12:14:27;9.52;;;5.30;;
39958;SDS011;25639;53.634;9.880;2023-10-09T12:16:58;7.63;;;6.00;;
39958;SDS011;25639;53.634;9.880;2023-10-09T12:19:23;8.15;;;5.75;;
39958;SDS011;25639;53.634;9.880;2023-10-09T12:21:49;7.53;;;5.32;;
39958;SDS011;25639;53.634;9.880;2023-10-09T12:24:14;6.68;;;5.97;;
39958;SDS011;25639;53.634;9.880;2023-10-09T12:26:43;7.35;;;6.03;;
39958;SDS011;25639;53.634;9.880;2023-10-09T12:29:11;6.65;;;5.80;;
39958;SDS011;25639;53.634;9.880;2023-10-09T12:31:36;6.55;;;5.55;;
39958;SDS011;25639;53.634;9.880;2023-10-09T12:34:02;6.82;;;5.88;;
39958;SDS011;25639;53.634;9.880;2023-10-09T12:36:28;9.57;;;6.00;;
39958;SDS011;25639;53.634;9.880;2023-10-09T12:38:53;7.03;;;5.15;;
39958;SDS011;25639;53.634;9.880;2023-10-09T12:41:23;7.65;;;5.50;;
39958;SDS011;25639;53.634;9.880;2023-10-09T12:43:53;7.53;;;5.43;;
39958;SDS011;25639;53.634;9.880;2023-10-09T12:46:19;7.60;;;5.38;;
39958;SDS011;25639;53.634;9.880;2023-10-09T12:48:51;11.05;;;6.47;;
39958;SDS011;25639;53.634;9.880;2023-10-09T12:51:19;9.77;;;6.30;;
39958;SDS011;25639;53.634;9.880;2023-10-09T12:53:46;16.95;;;6.90;;
39958;SDS011;25639;53.634;9.880;2023-10-09T12:56:14;10.40;;;6.65;;
39958;SDS011;25639;53.634;9.880;2023-10-09T12:58:40;10.15;;;7.05;;
39958;SDS011;25639;53.634;9.880;2023-10-09T13:01:17;8.82;;;6.55;;
39958;SDS011;25639;53.634;9.880;2023-10-09T13:03:44;10.85;;;7.30;;
39958;SDS011;25639;53.634;9.880;2023-10-09T13:06:09;9.40;;;7.63;;
39958;SDS011;25639;53.634;9.880;2023-10-09T13:08:38;9.90;;;8.18;;
39958;SDS011;25639;53.634;9.880;2023-10-09T13:11:06;11.15;;;8.70;;
39958;SDS011;25639;53.634;9.880;2023-10-09T13:13:36;9.85;;;8.07;;
39958;SDS011;25639;53.634;9.880;2023-10-09T13:16:09;10.93;;;8.45;;
39958;SDS011;25639;53.634;9.880;2023-10-09T13:18:45;9.90;;;8.40;;
39958;SDS011;25639;53.634;9.880;2023-10-09T13:21:21;9.30;;;8.20;;
39958;SDS011;25639;53.634;9.880;2023-10-09T13:23:48;10.93;;;7.90;;
39958;SDS011;25639;53.634;9.880;2023-10-09T13:26:20;10.40;;;8.15;;
39958;SDS011;25639;53.634;9.880;2023-10-09T13:28:53;9.60;;;8.02;;
39958;SDS011;25639;53.634;9.880;2023-10-09T13:31:20;10.20;;;7.78;;
39958;SDS011;25639;53.634;9.880;2023-10-09T13:33:46;10.50;;;8.18;;
39958;SDS011;25639;53.634;9.880;2023-10-09T13:36:13;11.35;;;7.90;;
39958;SDS011;25639;53.634;9.880;2023-10-09T13:38:52;12.90;;;8.18;;
39958;SDS011;25639;53.634;9.880;2023-10-09T13:41:57;14.57;;;8.10;;
39958;SDS011;25639;53.634;9.880;2023-10-09T13:44:32;9.38;;;7.85;;
39958;SDS011;25639;53.634;9.880;2023-10-09T13:47:03;12.18;;;8.93;;
39958;SDS011;25639;53.634;9.880;2023-10-09T13:49:30;12.18;;;9.52;;
39958;SDS011;25639;53.634;9.880;2023-10-09T13:52:00;9.68;;;8.05;;
39958;SDS011;25639;53.634;9.880;2023-10-09T13:54:26;10.75;;;8.20;;
39958;SDS011;25639;53.634;9.880;2023-10-09T13:56:55;10.38;;;7.97;;
39958;SDS011;25639;53.634;9.880;2023-10-09T13:59:21;12.02;;;8.32;;
39958;SDS011;25639;53.634;9.880;2023-10-09T14:01:50;12.82;;;8.02;;
39958;SDS011;25639;53.634;9.880;2023-10-09T14:04:15;9.38;;;7.20;;
39958;SDS011;25639;53.634;9.880;2023-10-09T14:06:43;10.65;;;7.55;;
39958;SDS011;25639;53.634;9.880;2023-10-09T14:09:09;10.27;;;7.82;;
39958;SDS011;25639;53.634;9.880;2023-10-09T14:11:36;10.27;;;7.57;;
39958;SDS011;25639;53.634;9.880;2023-10-09T14:14:09;9.52;;;6.90;;
39958;SDS011;25639;53.634;9.880;2023-10-09T14:16:35;9.13;;;6.90;;
39958;SDS011;25639;53.634;9.880;2023-10-09T14:19:01;10.73;;;7.35;;
39958;SDS011;25639;53.634;9.880;2023-10-09T14:21:32;8.48;;;7.13;;
39958;SDS011;25639;53.634;9.880;2023-10-09T14:24:02;10.52;;;6.47;;
39958;SDS011;25639;53.634;9.880;2023-10-09T14:26:29;8.90;;;6.38;;
39958;SDS011;25639;53.634;9.880;2023-10-09T14:28:54;10.43;;;6.03;;
39958;SDS011;25639;53.634;9.880;2023-10-09T14:31:22;10.50;;;7.18;;
39958;SDS011;25639;53.634;9.880;2023-10-09T14:33:55;8.15;;;6.10;;
39958;SDS011;25639;53.634;9.880;2023-10-09T14:36:21;6.82;;;4.97;;
39958;SDS011;25639;53.634;9.880;2023-10-09T14:38:50;6.05;;;5.07;;
39958;SDS011;25639;53.634;9.880;2023-10-09T14:41:21;9.65;;;6.47;;
39958;SDS011;25639;53.634;9.880;2023-10-09T14:43:48;10.82;;;7.30;;
39958;SDS011;25639;53.634;9.880;2023-10-09T14:46:14;8.07;;;5.95;;
39958;SDS011;25639;53.634;9.880;2023-10-09T14:48:40;8.13;;;6.47;;
39958;SDS011;25639;53.634;9.880;2023-10-09T14:51:06;11.50;;;7.55;;
39958;SDS011;25639;53.634;9.880;2023-10-09T14:53:32;8.70;;;6.40;;
39958;SDS011;25639;53.634;9.880;2023-10-09T14:55:59;6.90;;;5.57;;
39958;SDS011;25639;53.634;9.880;2023-10-09T14:58:26;11.55;;;7.05;;
39958;SDS011;25639;53.634;9.880;2023-10-09T15:00:55;12.23;;;6.97;;
39958;SDS011;25639;53.634;9.880;2023-10-09T15:03:21;11.23;;;7.13;;
39958;SDS011;25639;53.634;9.880;2023-10-09T15:05:48;9.95;;;6.97;;
39958;SDS011;25639;53.634;9.880;2023-10-09T15:08:13;11.85;;;6.55;;
39958;SDS011;25639;53.634;9.880;2023-10-09T15:13:12;13.55;;;7.25;;
39958;SDS011;25639;53.634;9.880;2023-10-09T15:15:41;7.13;;;5.72;;
39958;SDS011;25639;53.634;9.880;2023-10-09T15:18:07;9.38;;;6.28;;
39958;SDS011;25639;53.634;9.880;2023-10-09T15:20:34;7.22;;;5.38;;
39958;SDS011;25639;53.634;9.880;2023-10-09T15:22:59;7.85;;;6.15;;
39958;SDS011;25639;53.634;9.880;2023-10-09T15:25:26;10.10;;;7.00;;
39958;SDS011;25639;53.634;9.880;2023-10-09T15:27:51;8.90;;;6.82;;
39958;SDS011;25639;53.634;9.880;2023-10-09T15:30:17;7.65;;;5.95;;
39958;SDS011;25639;53.634;9.880;2023-10-09T15:32:42;6.15;;;5.05;;
39958;SDS011;25639;53.634;9.880;2023-10-09T15:35:08;10.38;;;7.43;;
39958;SDS011;25639;53.634;9.880;2023-10-09T15:37:41;8.45;;;7.10;;
39958;SDS011;25639;53.634;9.880;2023-10-09T15:40:07;11.68;;;7.00;;
39958;SDS011;25639;53.634;9.880;2023-10-09T15:42:48;8.43;;;6.63;;
39958;SDS011;25639;53.634;9.880;2023-10-09T15:45:21;11.25;;;7.68;;
39958;SDS011;25639;53.634;9.880;2023-10-09T15:47:47;7.60;;;6.60;;
39958;SDS011;25639;53.634;9.880;2023-10-09T15:50:13;8.02;;;6.57;;
39958;SDS011;25639;53.634;9.880;2023-10-09T15:52:39;8.55;;;7.20;;
39958;SDS011;25639;53.634;9.880;2023-10-09T15:55:05;8.80;;;7.07;;
39958;SDS011;25639;53.634;9.880;2023-10-09T15:57:38;11.57;;;8.40;;
39958;SDS011;25639;53.634;9.880;2023-10-09T16:00:04;8.30;;;6.07;;
39958;SDS011;25639;53.634;9.880;2023-10-09T16:02:38;10.40;;;6.40;;
39958;SDS011;25639;53.634;9.880;2023-10-09T16:05:05;9.05;;;5.72;;
39958;SDS011;25639;53.634;9.880;2023-10-09T16:07:31;9.60;;;5.20;;
39958;SDS011;25639;53.634;9.880;2023-10-09T16:09:57;6.82;;;3.88;;
39958;SDS011;25639;53.634;9.880;2023-10-09T16:12:23;11.27;;;4.20;;
39958;SDS011;25639;53.634;9.880;2023-10-09T16:14:51;7.22;;;3.97;;
39958;SDS011;25639;53.634;9.880;2023-10-09T16:17:18;5.53;;;2.60;;
39958;SDS011;25639;53.634;9.880;2023-10-09T16:19:44;7.57;;;2.70;;
39958;SDS011;25639;53.634;9.880;2023-10-09T16:22:10;5.47;;;2.03;;
39958;SDS011;25639;53.634;9.880;2023-10-09T16:24:38;4.07;;;1.70;;
39958;SDS011;25639;53.634;9.880;2023-10-09T16:27:04;7.03;;;1.40;;
39958;SDS011;25639;53.634;9.880;2023-10-09T16:29:30;9.48;;;1.65;;
39958;SDS011;25639;53.634;9.880;2023-10-09T16:31:57;6.70;;;1.50;;
39958;SDS011;25639;53.634;9.880;2023-10-09T16:34:23;5.88;;;1.50;;
39958;SDS011;25639;53.634;9.880;2023-10-09T16:36:51;5.15;;;1.25;;
39958;SDS011;25639;53.634;9.880;2023-10-09T16:39:16;4.32;;;1.30;;
39958;SDS011;25639;53.634;9.880;2023-10-09T16:41:47;4.85;;;1.20;;
39958;SDS011;25639;53.634;9.880;2023-10-09T16:44:13;3.65;;;1.42;;
39958;SDS011;25639;53.634;9.880;2023-10-09T16:46:41;2.28;;;1.30;;
39958;SDS011;25639;53.634;9.880;2023-10-09T16:49:10;6.03;;;1.73;;
39958;SDS011;25639;53.634;9.880;2023-10-09T16:51:38;4.13;;;1.15;;
39958;SDS011;25639;53.634;9.880;2023-10-09T16:54:05;4.75;;;1.58;;
39958;SDS011;25639;53.634;9.880;2023-10-09T16:56:30;7.50;;;1.42;;
39958;SDS011;25639;53.634;9.880;2023-10-09T16:58:58;4.35;;;1.60;;
39958;SDS011;25639;53.634;9.880;2023-10-09T17:01:25;4.47;;;1.50;;
39958;SDS011;25639;53.634;9.880;2023-10-09T17:03:52;4.82;;;1.60;;
39958;SDS011;25639;53.634;9.880;2023-10-09T17:06:22;10.93;;;1.67;;
39958;SDS011;25639;53.634;9.880;2023-10-09T17:08:49;5.78;;;1.20;;
39958;SDS011;25639;53.634;9.880;2023-10-09T17:11:16;4.68;;;1.67;;
39958;SDS011;25639;53.634;9.880;2023-10-09T17:13:45;12.68;;;1.70;;
39958;SDS011;25639;53.634;9.880;2023-10-09T17:16:14;4.13;;;1.55;;
39958;SDS011;25639;53.634;9.880;2023-10-09T17:18:44;4.82;;;1.52;;
39958;SDS011;25639;53.634;9.880;2023-10-09T17:21:10;5.03;;;1.27;;
39958;SDS011;25639;53.634;9.880;2023-10-09T17:23:38;7.00;;;2.25;;
39958;SDS011;25639;53.634;9.880;2023-10-09T17:26:03;3.88;;;1.90;;
39958;SDS011;25639;53.634;9.880;2023-10-09T17:28:28;10.68;;;1.92;;
39958;SDS011;25639;53.634;9.880;2023-10-09T17:31:01;1.00;;;0.90;;
39958;SDS011;25639;53.634;9.880;2023-10-09T17:33:27;7.13;;;1.40;;
39958;SDS011;25639;53.634;9.880;2023-10-09T17:35:53;3.58;;;0.77;;
39958;SDS011;25639;53.634;9.880;2023-10-09T17:38:20;5.15;;;1.27;;
39958;SDS011;25639;53.634;9.880;2023-10-09T17:40:48;2.33;;;0.90;;
39958;SDS011;25639;53.634;9.880;2023-10-09T17:43:16;6.30;;;1.10;;
39958;SDS011;25639;53.634;9.880;2023-10-09T17:45:42;2.90;;;1.33;;
39958;SDS011;25639;53.634;9.880;2023-10-09T17:48:08;5.10;;;1.20;;
39958;SDS011;25639;53.634;9.880;2023-10-09T17:50:34;3.30;;;0.80;;
39958;SDS011;25639;53.634;9.880;2023-10-09T17:53:00;4.90;;;1.27;;
39958;SDS011;25639;53.634;9.880;2023-10-09T17:55:29;4.00;;;1.02;;
39958;SDS011;25639;53.634;9.880;2023-10-09T17:57:55;2.75;;;1.23;;
39958;SDS011;25639;53.634;9.880;2023-10-09T18:00:20;2.47;;;1.33;;
39958;SDS011;25639;53.634;9.880;2023-10-09T18:02:48;2.63;;;1.05;;
39958;SDS011;25639;53.634;9.880;2023-10-09T18:05:14;4.32;;;1.40;;
39958;SDS011;25639;53.634;9.880;2023-10-09T18:07:40;6.85;;;1.35;;